sensor_id;sensor_type;location;lat;lon;timestamp;pressure;altitude;pressure_sealevel;temperature;humidity
12785;BME280;6456;42.680;23.260;2023-05-02T00:01:01;94915.97;;;13.19;83.78
12785;BME280;6456;42.680;23.260;2023-05-02T00:03:30;94933.59;;;13.25;84.60
12785;BME280;6456;42.680;23.260;2023-05-02T00:05:57;94854.22;;;12.59;85.08
12785;BME280;6456;42.680;23.260;2023-05-02T00:08:25;94797.72;;;12.23;85.86
12785;BME280;6456;42.680;23.260;2023-05-02T00:10:52;94941.66;;;13.12;86.19
12785;BME280;6456;42.680;23.260;2023-05-02T00:13:19;94894.66;;;12.77;86.84
12785;BME280;6456;42.680;23.260;2023-05-02T00:15:47;94838.44;;;12.34;86.93
12785;BME280;6456;42.680;23.260;2023-05-02T00:18:14;94891.72;;;12.67;87.56
12785;BME280;6456;42.680;23.260;2023-05-02T00:20:41;94887.59;;;12.71;86.92
12785;BME280;6456;42.680;23.260;2023-05-02T00:23:08;94945.97;;;13.06;87.22
12785;BME280;6456;42.680;23.260;2023-05-02T00:25:36;94903.44;;;12.71;87.26
12785;BME280;6456;42.680;23.260;2023-05-02T00:28:03;94930.03;;;12.95;87.09
12785;BME280;6456;42.680;23.260;2023-05-02T00:30:30;94861.41;;;12.52;86.71
12785;BME280;6456;42.680;23.260;2023-05-02T00:32:59;94822.22;;;12.31;86.39
12785;BME280;6456;42.680;23.260;2023-05-02T00:35:26;94958.75;;;13.09;86.39
12785;BME280;6456;42.680;23.260;2023-05-02T00:37:55;94846.06;;;12.42;85.93
12785;BME280;6456;42.680;23.260;2023-05-02T00:40:22;94837.78;;;12.39;85.57
12785;BME280;6456;42.680;23.260;2023-05-02T00:42:49;94826.31;;;12.27;84.83
12785;BME280;6456;42.680;23.260;2023-05-02T00:45:16;94944.97;;;13.01;84.95
12785;BME280;6456;42.680;23.260;2023-05-02T00:47:43;94966.41;;;13.17;85.16
12785;BME280;6456;42.680;23.260;2023-05-02T00:50:12;94950.69;;;12.98;84.97
12785;BME280;6456;42.680;23.260;2023-05-02T00:52:39;94981.00;;;13.20;84.58
12785;BME280;6456;42.680;23.260;2023-05-02T00:55:07;94903.06;;;12.68;84.51
12785;BME280;6456;42.680;23.260;2023-05-02T00:57:34;94958.41;;;12.99;84.74
12785;BME280;6456;42.680;23.260;2023-05-02T01:00:01;94958.00;;;13.02;84.80
12785;BME280;6456;42.680;23.260;2023-05-02T01:02:37;94896.69;;;12.57;84.69
12785;BME280;6456;42.680;23.260;2023-05-02T01:05:13;94919.81;;;12.80;84.25
12785;BME280;6456;42.680;23.260;2023-05-02T01:08:04;94876.59;;;12.56;84.27
12785;BME280;6456;42.680;23.260;2023-05-02T01:10:45;94890.59;;;12.57;84.96
12785;BME280;6456;42.680;23.260;2023-05-02T01:13:19;94876.28;;;12.46;85.31
12785;BME280;6456;42.680;23.260;2023-05-02T01:15:47;94923.69;;;12.77;85.97
12785;BME280;6456;42.680;23.260;2023-05-02T01:18:21;94819.69;;;11.99;88.63
12785;BME280;6456;42.680;23.260;2023-05-02T01:20:55;94878.38;;;12.38;89.94
12785;BME280;6456;42.680;23.260;2023-05-02T01:23:30;94802.31;;;11.92;90.61
12785;BME280;6456;42.680;23.260;2023-05-02T01:26:09;94910.47;;;12.59;91.47
12785;BME280;6456;42.680;23.260;2023-05-02T01:28:57;94944.75;;;12.84;91.72
12785;BME280;6456;42.680;23.260;2023-05-02T01:31:25;94888.81;;;12.51;91.59
12785;BME280;6456;42.680;23.260;2023-05-02T01:33:53;94864.41;;;12.37;91.37
12785;BME280;6456;42.680;23.260;2023-05-02T01:36:22;94945.41;;;12.79;90.28
12785;BME280;6456;42.680;23.260;2023-05-02T01:38:51;94904.13;;;12.42;89.02
12785;BME280;6456;42.680;23.260;2023-05-02T01:41:20;94904.97;;;12.36;88.04
12785;BME280;6456;42.680;23.260;2023-05-02T01:43:51;94843.19;;;12.01;88.18
12785;BME280;6456;42.680;23.260;2023-05-02T01:46:21;94823.09;;;11.75;88.67
12785;BME280;6456;42.680;23.260;2023-05-02T01:48:50;94940.25;;;12.42;89.80
12785;BME280;6456;42.680;23.260;2023-05-02T01:51:19;94887.94;;;12.14;90.02
12785;BME280;6456;42.680;23.260;2023-05-02T01:53:47;94892.16;;;12.15;91.29
12785;BME280;6456;42.680;23.260;2023-05-02T01:56:16;94935.56;;;12.44;92.26
12785;BME280;6456;42.680;23.260;2023-05-02T01:58:45;94984.53;;;12.64;93.76
12785;BME280;6456;42.680;23.260;2023-05-02T02:01:14;94875.00;;;12.06;94.53
12785;BME280;6456;42.680;23.260;2023-05-02T02:03:44;94816.22;;;11.74;94.95
12785;BME280;6456;42.680;23.260;2023-05-02T02:06:12;94952.28;;;12.62;95.14
12785;BME280;6456;42.680;23.260;2023-05-02T02:08:40;94803.88;;;11.75;94.64
12785;BME280;6456;42.680;23.260;2023-05-02T02:11:09;94899.38;;;12.26;94.37
12785;BME280;6456;42.680;23.260;2023-05-02T02:13:43;94908.63;;;12.35;93.54
12785;BME280;6456;42.680;23.260;2023-05-02T02:16:18;94890.88;;;12.24;93.40
12785;BME280;6456;42.680;23.260;2023-05-02T02:18:49;94968.28;;;12.67;93.67
12785;BME280;6456;42.680;23.260;2023-05-02T02:21:22;94929.47;;;12.43;93.52
12785;BME280;6456;42.680;23.260;2023-05-02T02:23:53;94900.78;;;12.29;93.58
12785;BME280;6456;42.680;23.260;2023-05-02T02:26:22;94922.44;;;12.37;92.97
12785;BME280;6456;42.680;23.260;2023-05-02T02:28:49;94956.84;;;12.49;92.67
12785;BME280;6456;42.680;23.260;2023-05-02T02:31:16;94807.38;;;11.62;92.58
12785;BME280;6456;42.680;23.260;2023-05-02T02:33:44;94856.47;;;11.88;92.18
12785;BME280;6456;42.680;23.260;2023-05-02T02:36:15;94908.81;;;12.15;92.14
12785;BME280;6456;42.680;23.260;2023-05-02T02:38:49;94938.63;;;12.16;92.89
12785;BME280;6456;42.680;23.260;2023-05-02T02:41:29;94955.22;;;12.23;93.12
12785;BME280;6456;42.680;23.260;2023-05-02T02:44:03;94876.38;;;11.84;93.25
12785;BME280;6456;42.680;23.260;2023-05-02T02:46:40;94946.13;;;12.19;93.33
12785;BME280;6456;42.680;23.260;2023-05-02T02:49:20;94867.34;;;11.67;93.50
12785;BME280;6456;42.680;23.260;2023-05-02T02:52:09;94914.44;;;11.94;93.39
12785;BME280;6456;42.680;23.260;2023-05-02T02:54:45;94940.94;;;12.06;93.90
12785;BME280;6456;42.680;23.260;2023-05-02T02:57:16;95011.72;;;12.40;93.63
12785;BME280;6456;42.680;23.260;2023-05-02T02:59:50;94921.78;;;11.86;93.44
12785;BME280;6456;42.680;23.260;2023-05-02T03:02:26;94853.72;;;11.38;94.01
12785;BME280;6456;42.680;23.260;2023-05-02T03:04:56;94876.16;;;11.47;93.73
12785;BME280;6456;42.680;23.260;2023-05-02T03:07:27;94862.63;;;11.37;93.70
12785;BME280;6456;42.680;23.260;2023-05-02T03:09:55;94844.31;;;11.18;93.89
12785;BME280;6456;42.680;23.260;2023-05-02T03:12:22;94889.00;;;11.37;94.40
12785;BME280;6456;42.680;23.260;2023-05-02T03:14:49;95009.44;;;12.19;94.69
12785;BME280;6456;42.680;23.260;2023-05-02T03:17:16;94969.06;;;11.87;94.66
12785;BME280;6456;42.680;23.260;2023-05-02T03:19:43;94955.72;;;11.82;94.93
12785;BME280;6456;42.680;23.260;2023-05-02T03:22:10;94987.69;;;11.92;95.24
12785;BME280;6456;42.680;23.260;2023-05-02T03:24:38;94920.13;;;11.53;95.59
12785;BME280;6456;42.680;23.260;2023-05-02T03:27:05;94930.59;;;11.67;96.41
12785;BME280;6456;42.680;23.260;2023-05-02T03:29:32;95007.94;;;11.98;97.70
12785;BME280;6456;42.680;23.260;2023-05-02T03:32:00;94942.41;;;11.57;97.99
12785;BME280;6456;42.680;23.260;2023-05-02T03:34:27;94946.22;;;11.75;97.79
12785;BME280;6456;42.680;23.260;2023-05-02T03:36:53;94949.22;;;11.78;97.20
12785;BME280;6456;42.680;23.260;2023-05-02T03:39:20;94967.84;;;11.90;96.39
12785;BME280;6456;42.680;23.260;2023-05-02T03:41:49;94941.53;;;11.77;95.05
12785;BME280;6456;42.680;23.260;2023-05-02T03:44:16;94990.50;;;11.97;94.85
12785;BME280;6456;42.680;23.260;2023-05-02T03:46:43;95007.81;;;12.18;94.90
12785;BME280;6456;42.680;23.260;2023-05-02T03:49:09;94945.75;;;11.84;94.33
12785;BME280;6456;42.680;23.260;2023-05-02T03:51:36;95024.16;;;12.33;94.61
12785;BME280;6456;42.680;23.260;2023-05-02T03:54:03;95028.00;;;12.37;94.04
12785;BME280;6456;42.680;23.260;2023-05-02T03:56:30;95027.34;;;12.42;93.08
12785;BME280;6456;42.680;23.260;2023-05-02T03:58:59;94929.75;;;11.79;92.61
12785;BME280;6456;42.680;23.260;2023-05-02T04:01:25;95008.50;;;12.38;91.85
12785;BME280;6456;42.680;23.260;2023-05-02T04:03:52;95031.50;;;12.56;91.21
12785;BME280;6456;42.680;23.260;2023-05-02T04:06:25;94945.03;;;12.02;91.41
12785;BME280;6456;42.680;23.260;2023-05-02T04:08:52;94990.25;;;12.37;91.54
12785;BME280;6456;42.680;23.260;2023-05-02T04:11:19;94960.50;;;12.23;91.05
12785;BME280;6456;42.680;23.260;2023-05-02T04:13:46;94987.78;;;12.42;90.82
12785;BME280;6456;42.680;23.260;2023-05-02T04:16:14;94971.13;;;12.41;90.92
12785;BME280;6456;42.680;23.260;2023-05-02T04:18:41;95028.38;;;12.65;93.35
12785;BME280;6456;42.680;23.260;2023-05-02T04:21:08;95012.88;;;12.51;95.49
12785;BME280;6456;42.680;23.260;2023-05-02T04:23:35;95017.94;;;12.77;96.14
12785;BME280;6456;42.680;23.260;2023-05-02T04:26:02;94939.13;;;12.31;95.04
12785;BME280;6456;42.680;23.260;2023-05-02T04:28:29;95026.56;;;12.91;93.94
12785;BME280;6456;42.680;23.260;2023-05-02T04:30:55;95026.06;;;13.00;93.56
12785;BME280;6456;42.680;23.260;2023-05-02T04:33:24;95028.44;;;13.08;93.17
12785;BME280;6456;42.680;23.260;2023-05-02T04:35:51;95002.06;;;13.02;91.79
12785;BME280;6456;42.680;23.260;2023-05-02T04:38:18;94991.56;;;12.95;91.39
12785;BME280;6456;42.680;23.260;2023-05-02T04:40:44;95030.16;;;13.21;90.93
12785;BME280;6456;42.680;23.260;2023-05-02T04:43:11;94981.59;;;12.97;89.77
12785;BME280;6456;42.680;23.260;2023-05-02T04:45:38;95004.47;;;13.10;89.68
12785;BME280;6456;42.680;23.260;2023-05-02T04:48:05;95035.75;;;13.31;88.63
12785;BME280;6456;42.680;23.260;2023-05-02T04:50:33;94937.69;;;12.78;88.66
12785;BME280;6456;42.680;23.260;2023-05-02T04:53:00;95032.16;;;13.43;88.06
12785;BME280;6456;42.680;23.260;2023-05-02T04:55:27;95015.84;;;13.28;87.98
12785;BME280;6456;42.680;23.260;2023-05-02T04:57:54;95023.38;;;13.49;87.16
12785;BME280;6456;42.680;23.260;2023-05-02T05:00:21;95032.41;;;13.60;86.84
12785;BME280;6456;42.680;23.260;2023-05-02T05:02:48;95034.16;;;13.66;86.88
12785;BME280;6456;42.680;23.260;2023-05-02T05:05:15;95023.56;;;13.66;86.34
12785;BME280;6456;42.680;23.260;2023-05-02T05:07:43;95035.09;;;13.72;85.55
12785;BME280;6456;42.680;23.260;2023-05-02T05:10:10;95012.47;;;13.76;84.48
12785;BME280;6456;42.680;23.260;2023-05-02T05:12:37;95026.56;;;13.88;84.19
12785;BME280;6456;42.680;23.260;2023-05-02T05:15:04;94997.66;;;13.75;83.14
12785;BME280;6456;42.680;23.260;2023-05-02T05:17:31;95037.22;;;13.99;83.08
12785;BME280;6456;42.680;23.260;2023-05-02T05:19:58;95038.03;;;14.00;83.22
12785;BME280;6456;42.680;23.260;2023-05-02T05:22:24;95033.66;;;14.05;81.07
12785;BME280;6456;42.680;23.260;2023-05-02T05:24:53;95035.72;;;14.03;80.72
12785;BME280;6456;42.680;23.260;2023-05-02T05:27:34;95039.09;;;14.10;80.26
12785;BME280;6456;42.680;23.260;2023-05-02T05:30:02;94902.88;;;13.24;80.15
12785;BME280;6456;42.680;23.260;2023-05-02T05:32:29;95044.78;;;14.26;79.13
12785;BME280;6456;42.680;23.260;2023-05-02T05:34:56;95047.81;;;14.29;79.29
12785;BME280;6456;42.680;23.260;2023-05-02T05:37:23;94925.84;;;13.60;80.51
12785;BME280;6456;42.680;23.260;2023-05-02T05:39:50;95047.72;;;14.36;80.57
12785;BME280;6456;42.680;23.260;2023-05-02T05:42:18;94999.06;;;14.07;80.53
12785;BME280;6456;42.680;23.260;2023-05-02T05:44:55;94956.38;;;13.85;80.52
12785;BME280;6456;42.680;23.260;2023-05-02T05:47:22;95043.63;;;14.40;80.06
12785;BME280;6456;42.680;23.260;2023-05-02T05:49:51;95036.84;;;14.44;80.33
12785;BME280;6456;42.680;23.260;2023-05-02T05:52:18;95050.00;;;14.62;80.02
12785;BME280;6456;42.680;23.260;2023-05-02T05:54:45;95058.22;;;14.72;80.03
12785;BME280;6456;42.680;23.260;2023-05-02T05:57:12;95041.00;;;14.63;77.21
12785;BME280;6456;42.680;23.260;2023-05-02T05:59:40;95036.09;;;14.66;77.32
12785;BME280;6456;42.680;23.260;2023-05-02T06:02:07;95062.13;;;14.81;77.39
12785;BME280;6456;42.680;23.260;2023-05-02T06:04:34;95067.56;;;14.86;74.98
12785;BME280;6456;42.680;23.260;2023-05-02T06:07:00;95050.72;;;14.69;74.61
12785;BME280;6456;42.680;23.260;2023-05-02T06:09:27;95080.56;;;14.76;74.60
12785;BME280;6456;42.680;23.260;2023-05-02T06:11:57;95022.69;;;14.50;75.31
12785;BME280;6456;42.680;23.260;2023-05-02T06:14:24;95006.81;;;14.50;74.83
12785;BME280;6456;42.680;23.260;2023-05-02T06:16:52;95019.03;;;14.62;72.57
12785;BME280;6456;42.680;23.260;2023-05-02T06:19:19;95067.56;;;14.86;73.27
12785;BME280;6456;42.680;23.260;2023-05-02T06:21:46;95077.38;;;14.97;74.26
12785;BME280;6456;42.680;23.260;2023-05-02T06:24:12;94962.00;;;14.37;72.42
12785;BME280;6456;42.680;23.260;2023-05-02T06:26:39;95055.38;;;15.08;70.90
12785;BME280;6456;42.680;23.260;2023-05-02T06:29:06;94978.00;;;14.42;70.22
12785;BME280;6456;42.680;23.260;2023-05-02T06:31:33;94959.47;;;14.42;70.32
12785;BME280;6456;42.680;23.260;2023-05-02T06:34:01;95006.94;;;14.55;69.44
12785;BME280;6456;42.680;23.260;2023-05-02T06:36:28;94988.72;;;14.47;69.92
12785;BME280;6456;42.680;23.260;2023-05-02T06:38:55;95005.13;;;14.67;69.47
12785;BME280;6456;42.680;23.260;2023-05-02T06:41:22;94966.28;;;14.49;69.54
12785;BME280;6456;42.680;23.260;2023-05-02T06:43:49;94982.75;;;14.63;67.74
12785;BME280;6456;42.680;23.260;2023-05-02T06:46:16;94959.94;;;14.39;67.44
12785;BME280;6456;42.680;23.260;2023-05-02T06:48:44;94969.38;;;14.35;68.17
12785;BME280;6456;42.680;23.260;2023-05-02T06:51:13;95060.13;;;15.18;67.23
12785;BME280;6456;42.680;23.260;2023-05-02T06:53:40;95004.66;;;14.70;66.80
12785;BME280;6456;42.680;23.260;2023-05-02T06:56:07;95018.16;;;15.03;67.12
12785;BME280;6456;42.680;23.260;2023-05-02T06:58:34;95046.06;;;15.29;69.13
12785;BME280;6456;42.680;23.260;2023-05-02T07:01:01;94988.53;;;15.06;65.34
12785;BME280;6456;42.680;23.260;2023-05-02T07:03:27;95050.81;;;15.50;64.62
12785;BME280;6456;42.680;23.260;2023-05-02T07:05:54;95055.63;;;15.41;64.37
12785;BME280;6456;42.680;23.260;2023-05-02T07:08:23;95014.13;;;15.12;64.90
12785;BME280;6456;42.680;23.260;2023-05-02T07:10:50;95039.25;;;15.45;64.32
12785;BME280;6456;42.680;23.260;2023-05-02T07:13:17;94990.63;;;15.04;63.89
12785;BME280;6456;42.680;23.260;2023-05-02T07:15:44;94977.94;;;15.06;64.07
12785;BME280;6456;42.680;23.260;2023-05-02T07:18:11;95051.16;;;15.65;63.28
12785;BME280;6456;42.680;23.260;2023-05-02T07:20:37;95063.56;;;15.88;64.05
12785;BME280;6456;42.680;23.260;2023-05-02T07:23:06;95074.72;;;16.01;63.03
12785;BME280;6456;42.680;23.260;2023-05-02T07:25:34;94974.47;;;15.40;60.68
12785;BME280;6456;42.680;23.260;2023-05-02T07:28:02;95067.09;;;16.05;61.32
12785;BME280;6456;42.680;23.260;2023-05-02T07:30:29;95050.50;;;15.98;59.63
12785;BME280;6456;42.680;23.260;2023-05-02T07:32:56;95030.41;;;16.02;59.67
12785;BME280;6456;42.680;23.260;2023-05-02T07:35:23;94925.91;;;15.52;59.38
12785;BME280;6456;42.680;23.260;2023-05-02T07:37:50;94946.88;;;15.65;57.86
12785;BME280;6456;42.680;23.260;2023-05-02T07:40:17;95064.63;;;16.43;57.52
12785;BME280;6456;42.680;23.260;2023-05-02T07:42:48;94937.63;;;15.67;58.05
12785;BME280;6456;42.680;23.260;2023-05-02T07:45:15;95074.44;;;16.54;58.02
12785;BME280;6456;42.680;23.260;2023-05-02T07:47:42;95064.50;;;16.50;57.82
12785;BME280;6456;42.680;23.260;2023-05-02T07:50:10;95075.09;;;16.61;57.56
12785;BME280;6456;42.680;23.260;2023-05-02T07:52:36;95057.41;;;16.67;58.79
12785;BME280;6456;42.680;23.260;2023-05-02T07:55:04;95061.13;;;16.83;57.22
12785;BME280;6456;42.680;23.260;2023-05-02T07:57:31;94998.31;;;16.48;58.29
12785;BME280;6456;42.680;23.260;2023-05-02T07:59:59;95055.34;;;16.86;55.41
12785;BME280;6456;42.680;23.260;2023-05-02T08:02:26;95051.16;;;16.90;57.25
12785;BME280;6456;42.680;23.260;2023-05-02T08:04:53;95035.84;;;16.80;54.82
12785;BME280;6456;42.680;23.260;2023-05-02T08:07:20;95068.31;;;16.99;55.60
12785;BME280;6456;42.680;23.260;2023-05-02T08:09:47;95069.13;;;17.16;56.68
12785;BME280;6456;42.680;23.260;2023-05-02T08:12:14;95070.09;;;17.10;53.98
12785;BME280;6456;42.680;23.260;2023-05-02T08:14:41;95067.28;;;17.00;54.10
12785;BME280;6456;42.680;23.260;2023-05-02T08:17:10;95001.44;;;16.57;54.89
12785;BME280;6456;42.680;23.260;2023-05-02T08:19:37;95068.63;;;17.19;54.88
12785;BME280;6456;42.680;23.260;2023-05-02T08:22:07;94967.63;;;16.52;54.40
12785;BME280;6456;42.680;23.260;2023-05-02T08:24:34;94999.69;;;16.96;56.75
12785;BME280;6456;42.680;23.260;2023-05-02T08:27:01;95034.88;;;17.03;52.78
12785;BME280;6456;42.680;23.260;2023-05-02T08:29:29;95071.53;;;17.34;53.50
12785;BME280;6456;42.680;23.260;2023-05-02T08:31:55;94935.56;;;16.42;52.54
12785;BME280;6456;42.680;23.260;2023-05-02T08:34:24;95055.41;;;17.41;53.31
12785;BME280;6456;42.680;23.260;2023-05-02T08:36:51;95014.94;;;17.39;53.09
12785;BME280;6456;42.680;23.260;2023-05-02T08:39:17;95024.91;;;17.65;55.30
12785;BME280;6456;42.680;23.260;2023-05-02T08:41:44;95073.34;;;18.05;52.01
12785;BME280;6456;42.680;23.260;2023-05-02T08:44:11;94996.81;;;17.96;54.58
12785;BME280;6456;42.680;23.260;2023-05-02T08:46:40;95074.53;;;18.58;51.89
12785;BME280;6456;42.680;23.260;2023-05-02T08:49:09;95031.91;;;18.36;50.29
12785;BME280;6456;42.680;23.260;2023-05-02T08:51:38;95053.31;;;18.46;48.86
12785;BME280;6456;42.680;23.260;2023-05-02T08:54:08;95045.16;;;18.31;48.97
12785;BME280;6456;42.680;23.260;2023-05-02T08:56:36;95056.06;;;18.51;50.75
12785;BME280;6456;42.680;23.260;2023-05-02T08:59:05;94981.31;;;18.14;49.28
12785;BME280;6456;42.680;23.260;2023-05-02T09:01:34;95056.47;;;18.65;47.49
12785;BME280;6456;42.680;23.260;2023-05-02T09:04:02;95040.25;;;18.66;47.46
12785;BME280;6456;42.680;23.260;2023-05-02T09:06:29;95057.16;;;18.82;47.50
12785;BME280;6456;42.680;23.260;2023-05-02T09:08:59;95013.09;;;18.74;47.75
12785;BME280;6456;42.680;23.260;2023-05-02T09:11:26;95050.00;;;19.19;47.84
12785;BME280;6456;42.680;23.260;2023-05-02T09:13:53;95053.16;;;19.43;47.26
12785;BME280;6456;42.680;23.260;2023-05-02T09:16:21;95047.97;;;19.63;47.26
12785;BME280;6456;42.680;23.260;2023-05-02T09:18:50;95044.06;;;19.80;45.67
12785;BME280;6456;42.680;23.260;2023-05-02T09:21:19;94990.44;;;19.40;44.39
12785;BME280;6456;42.680;23.260;2023-05-02T09:23:47;95037.44;;;19.93;44.46
12785;BME280;6456;42.680;23.260;2023-05-02T09:26:17;95042.50;;;19.95;42.77
12785;BME280;6456;42.680;23.260;2023-05-02T09:28:46;95031.03;;;19.94;43.52
12785;BME280;6456;42.680;23.260;2023-05-02T09:31:14;95048.34;;;19.87;44.50
12785;BME280;6456;42.680;23.260;2023-05-02T09:33:42;95039.38;;;20.08;44.50
12785;BME280;6456;42.680;23.260;2023-05-02T09:36:11;95037.13;;;20.41;42.93
12785;BME280;6456;42.680;23.260;2023-05-02T09:38:40;95021.31;;;20.30;42.00
12785;BME280;6456;42.680;23.260;2023-05-02T09:41:07;95007.59;;;20.11;41.62
12785;BME280;6456;42.680;23.260;2023-05-02T09:43:35;95026.44;;;20.36;41.79
12785;BME280;6456;42.680;23.260;2023-05-02T09:46:03;94980.84;;;19.96;40.75
12785;BME280;6456;42.680;23.260;2023-05-02T09:48:31;95030.06;;;20.15;41.72
12785;BME280;6456;42.680;23.260;2023-05-02T09:50:59;95027.03;;;19.97;40.65
12785;BME280;6456;42.680;23.260;2023-05-02T09:53:27;95018.69;;;19.83;40.78
12785;BME280;6456;42.680;23.260;2023-05-02T09:56:01;95017.13;;;19.92;41.22
12785;BME280;6456;42.680;23.260;2023-05-02T09:58:28;95014.75;;;19.96;40.27
12785;BME280;6456;42.680;23.260;2023-05-02T10:00:58;95019.44;;;20.30;40.81
12785;BME280;6456;42.680;23.260;2023-05-02T10:03:27;95018.13;;;20.38;39.01
12785;BME280;6456;42.680;23.260;2023-05-02T10:05:54;94897.41;;;19.64;40.10
12785;BME280;6456;42.680;23.260;2023-05-02T10:08:24;94986.25;;;20.11;40.47
12785;BME280;6456;42.680;23.260;2023-05-02T10:10:54;94990.31;;;20.24;39.69
12785;BME280;6456;42.680;23.260;2023-05-02T10:13:22;94954.97;;;20.12;38.46
12785;BME280;6456;42.680;23.260;2023-05-02T10:15:59;94987.44;;;20.51;38.09
12785;BME280;6456;42.680;23.260;2023-05-02T10:18:28;94972.59;;;20.13;37.22
12785;BME280;6456;42.680;23.260;2023-05-02T10:21:02;94908.97;;;19.90;37.68
12785;BME280;6456;42.680;23.260;2023-05-02T10:23:32;95000.28;;;20.54;37.21
12785;BME280;6456;42.680;23.260;2023-05-02T10:25:59;94971.00;;;20.12;38.19
12785;BME280;6456;42.680;23.260;2023-05-02T10:28:26;94960.81;;;19.94;38.34
12785;BME280;6456;42.680;23.260;2023-05-02T10:30:53;94874.97;;;19.65;39.14
12785;BME280;6456;42.680;23.260;2023-05-02T10:33:22;94994.91;;;20.54;38.19
12785;BME280;6456;42.680;23.260;2023-05-02T10:35:49;94949.47;;;20.49;36.41
12785;BME280;6456;42.680;23.260;2023-05-02T10:38:18;94865.22;;;20.16;36.22
12785;BME280;6456;42.680;23.260;2023-05-02T10:40:52;94982.09;;;20.56;36.17
12785;BME280;6456;42.680;23.260;2023-05-02T10:43:24;94976.69;;;20.30;36.87
12785;BME280;6456;42.680;23.260;2023-05-02T10:45:53;94972.88;;;20.11;35.85
12785;BME280;6456;42.680;23.260;2023-05-02T10:48:23;94977.41;;;20.06;36.86
12785;BME280;6456;42.680;23.260;2023-05-02T10:50:52;94964.34;;;20.19;37.59
12785;BME280;6456;42.680;23.260;2023-05-02T10:53:24;94930.69;;;20.18;37.90
12785;BME280;6456;42.680;23.260;2023-05-02T10:56:15;94944.13;;;20.49;38.52
12785;BME280;6456;42.680;23.260;2023-05-02T10:58:43;94960.19;;;20.99;37.78
12785;BME280;6456;42.680;23.260;2023-05-02T11:01:35;94963.13;;;21.28;36.96
12785;BME280;6456;42.680;23.260;2023-05-02T11:04:07;94889.84;;;20.83;35.26
12785;BME280;6456;42.680;23.260;2023-05-02T11:06:35;94970.88;;;21.44;35.18
12785;BME280;6456;42.680;23.260;2023-05-02T11:09:30;94956.59;;;21.74;35.29
12785;BME280;6456;42.680;23.260;2023-05-02T11:11:58;94909.53;;;21.43;34.38
12785;BME280;6456;42.680;23.260;2023-05-02T11:14:45;94956.03;;;21.67;33.16
12785;BME280;6456;42.680;23.260;2023-05-02T11:17:13;94895.97;;;20.99;33.04
12785;BME280;6456;42.680;23.260;2023-05-02T11:22:58;94950.13;;;21.75;35.42
12785;BME280;6456;42.680;23.260;2023-05-02T11:25:36;94929.50;;;21.81;33.57
12785;BME280;6456;42.680;23.260;2023-05-02T11:28:06;94905.84;;;21.98;33.95
12785;BME280;6456;42.680;23.260;2023-05-02T11:30:38;94904.19;;;22.12;34.14
12785;BME280;6456;42.680;23.260;2023-05-02T11:33:14;94938.25;;;22.50;33.97
12785;BME280;6456;42.680;23.260;2023-05-02T11:35:47;94945.88;;;22.33;33.02
12785;BME280;6456;42.680;23.260;2023-05-02T11:38:18;94893.41;;;22.22;34.95
12785;BME280;6456;42.680;23.260;2023-05-02T11:40:55;94887.13;;;22.37;33.00
12785;BME280;6456;42.680;23.260;2023-05-02T11:43:25;94893.75;;;22.49;34.05
12785;BME280;6456;42.680;23.260;2023-05-02T11:45:53;94911.72;;;22.82;33.64
12785;BME280;6456;42.680;23.260;2023-05-02T11:48:21;94911.00;;;22.33;31.24
12785;BME280;6456;42.680;23.260;2023-05-02T11:50:52;94926.53;;;21.87;32.34
12785;BME280;6456;42.680;23.260;2023-05-02T11:53:22;94917.25;;;21.59;34.33
12785;BME280;6456;42.680;23.260;2023-05-02T11:55:51;94912.47;;;21.56;34.10
12785;BME280;6456;42.680;23.260;2023-05-02T11:58:20;94916.94;;;21.76;35.01
12785;BME280;6456;42.680;23.260;2023-05-02T12:00:48;94908.13;;;21.60;33.97
12785;BME280;6456;42.680;23.260;2023-05-02T12:03:29;94907.38;;;21.45;34.02
12785;BME280;6456;42.680;23.260;2023-05-02T12:05:57;94820.28;;;20.93;35.17
12785;BME280;6456;42.680;23.260;2023-05-02T12:08:35;94872.91;;;21.28;35.68
12785;BME280;6456;42.680;23.260;2023-05-02T12:11:02;94856.34;;;21.26;35.53
12785;BME280;6456;42.680;23.260;2023-05-02T12:13:30;94888.91;;;21.53;34.34
12785;BME280;6456;42.680;23.260;2023-05-02T12:15:57;94874.78;;;21.33;34.34
12785;BME280;6456;42.680;23.260;2023-05-02T12:18:25;94802.88;;;20.96;34.93
12785;BME280;6456;42.680;23.260;2023-05-02T12:20:54;94816.22;;;21.16;35.84
12785;BME280;6456;42.680;23.260;2023-05-02T12:23:22;94876.03;;;21.55;35.42
12785;BME280;6456;42.680;23.260;2023-05-02T12:25:52;94850.94;;;21.41;34.49
12785;BME280;6456;42.680;23.260;2023-05-02T12:28:20;94874.91;;;21.71;35.75
12785;BME280;6456;42.680;23.260;2023-05-02T12:30:49;94865.78;;;21.67;34.72
12785;BME280;6456;42.680;23.260;2023-05-02T12:33:16;94855.88;;;21.68;34.21
12785;BME280;6456;42.680;23.260;2023-05-02T12:35:44;94857.56;;;21.59;34.47
12785;BME280;6456;42.680;23.260;2023-05-02T12:38:14;94845.50;;;21.61;34.94
12785;BME280;6456;42.680;23.260;2023-05-02T12:40:52;94790.91;;;21.47;35.35
12785;BME280;6456;42.680;23.260;2023-05-02T12:43:22;94846.13;;;21.92;34.42
12785;BME280;6456;42.680;23.260;2023-05-02T12:45:49;94740.41;;;21.36;32.84
12785;BME280;6456;42.680;23.260;2023-05-02T12:48:20;94825.34;;;21.74;32.33
12785;BME280;6456;42.680;23.260;2023-05-02T12:50:47;94812.53;;;21.61;32.57
12785;BME280;6456;42.680;23.260;2023-05-02T12:53:14;94818.72;;;21.61;32.79
12785;BME280;6456;42.680;23.260;2023-05-02T12:55:41;94830.56;;;21.45;32.19
12785;BME280;6456;42.680;23.260;2023-05-02T12:58:10;94806.53;;;21.30;33.55
12785;BME280;6456;42.680;23.260;2023-05-02T13:00:39;94780.84;;;21.34;33.94
12785;BME280;6456;42.680;23.260;2023-05-02T13:03:06;94819.81;;;21.55;34.01
12785;BME280;6456;42.680;23.260;2023-05-02T13:05:34;94811.13;;;21.79;35.39
12785;BME280;6456;42.680;23.260;2023-05-02T13:08:01;94814.75;;;21.98;34.14
12785;BME280;6456;42.680;23.260;2023-05-02T13:10:28;94811.31;;;21.92;33.84
12785;BME280;6456;42.680;23.260;2023-05-02T13:12:55;94810.53;;;21.92;33.76